sensor_id;sensor_type;location;lat;lon;timestamp;P1;durP1;ratioP1;P2;durP2;ratioP2
78887;SDS011;68276;49.326;8.690;2023-12-04T00:01:35;11.07;;;4.07;;
78887;SDS011;68276;49.326;8.690;2023-12-04T00:04:01;12.30;;;4.03;;
78887;SDS011;68276;49.326;8.690;2023-12-04T00:06:26;11.48;;;4.90;;
78887;SDS011;68276;49.326;8.690;2023-12-04T00:08:51;10.40;;;3.83;;
78887;SDS011;68276;49.326;8.690;2023-12-04T00:11:16;11.97;;;4.47;;
78887;SDS011;68276;49.326;8.690;2023-12-04T00:13:42;12.07;;;4.57;;
78887;SDS011;68276;49.326;8.690;2023-12-04T00:16:07;14.33;;;4.83;;
78887;SDS011;68276;49.326;8.690;2023-12-04T00:18:32;11.02;;;4.00;;
78887;SDS011;68276;49.326;8.690;2023-12-04T00:20:58;11.53;;;4.07;;
78887;SDS011;68276;49.326;8.690;2023-12-04T00:23:23;13.00;;;4.60;;
78887;SDS011;68276;49.326;8.690;2023-12-04T00:25:48;12.03;;;4.77;;
78887;SDS011;68276;49.326;8.690;2023-12-04T00:28:13;12.23;;;4.57;;
78887;SDS011;68276;49.326;8.690;2023-12-04T00:30:39;13.80;;;3.97;;
78887;SDS011;68276;49.326;8.690;2023-12-04T00:33:04;11.70;;;4.73;;
78887;SDS011;68276;49.326;8.690;2023-12-04T00:35:29;10.93;;;3.57;;
78887;SDS011;68276;49.326;8.690;2023-12-04T00:37:54;12.70;;;4.07;;
78887;SDS011;68276;49.326;8.690;2023-12-04T00:40:20;11.30;;;4.20;;
78887;SDS011;68276;49.326;8.690;2023-12-04T00:42:45;11.07;;;4.00;;
78887;SDS011;68276;49.326;8.690;2023-12-04T00:45:10;10.67;;;3.63;;
78887;SDS011;68276;49.326;8.690;2023-12-04T00:47:35;12.87;;;4.37;;
78887;SDS011;68276;49.326;8.690;2023-12-04T00:50:01;9.60;;;3.27;;
78887;SDS011;68276;49.326;8.690;2023-12-04T00:52:26;9.38;;;3.55;;
78887;SDS011;68276;49.326;8.690;2023-12-04T00:54:51;10.37;;;3.23;;
78887;SDS011;68276;49.326;8.690;2023-12-04T00:57:17;10.67;;;4.10;;
78887;SDS011;68276;49.326;8.690;2023-12-04T00:59:42;12.80;;;4.33;;
78887;SDS011;68276;49.326;8.690;2023-12-04T01:02:07;11.63;;;4.03;;
78887;SDS011;68276;49.326;8.690;2023-12-04T01:04:32;13.40;;;4.57;;
78887;SDS011;68276;49.326;8.690;2023-12-04T01:06:58;13.43;;;4.72;;
78887;SDS011;68276;49.326;8.690;2023-12-04T01:09:23;12.30;;;4.80;;
78887;SDS011;68276;49.326;8.690;2023-12-04T01:11:51;15.05;;;5.18;;
78887;SDS011;68276;49.326;8.690;2023-12-04T01:14:16;9.23;;;3.28;;
78887;SDS011;68276;49.326;8.690;2023-12-04T01:16:42;11.27;;;4.03;;
78887;SDS011;68276;49.326;8.690;2023-12-04T01:19:07;14.23;;;4.37;;
78887;SDS011;68276;49.326;8.690;2023-12-04T01:21:32;10.53;;;3.60;;
78887;SDS011;68276;49.326;8.690;2023-12-04T01:23:57;9.70;;;3.57;;
78887;SDS011;68276;49.326;8.690;2023-12-04T01:26:23;10.67;;;4.40;;
78887;SDS011;68276;49.326;8.690;2023-12-04T01:28:48;12.50;;;4.73;;
78887;SDS011;68276;49.326;8.690;2023-12-04T01:31:13;10.25;;;3.83;;
78887;SDS011;68276;49.326;8.690;2023-12-04T01:33:39;15.20;;;5.82;;
78887;SDS011;68276;49.326;8.690;2023-12-04T01:36:05;12.53;;;4.63;;
78887;SDS011;68276;49.326;8.690;2023-12-04T01:38:30;12.25;;;4.88;;
78887;SDS011;68276;49.326;8.690;2023-12-04T01:40:56;12.23;;;4.05;;
78887;SDS011;68276;49.326;8.690;2023-12-04T01:43:21;9.87;;;3.83;;
78887;SDS011;68276;49.326;8.690;2023-12-04T01:45:46;12.27;;;4.30;;
78887;SDS011;68276;49.326;8.690;2023-12-04T01:48:11;11.57;;;3.67;;
78887;SDS011;68276;49.326;8.690;2023-12-04T01:50:38;10.73;;;3.58;;
78887;SDS011;68276;49.326;8.690;2023-12-04T01:53:04;11.52;;;4.25;;
78887;SDS011;68276;49.326;8.690;2023-12-04T01:55:29;10.73;;;3.97;;
78887;SDS011;68276;49.326;8.690;2023-12-04T01:57:54;11.50;;;3.83;;
78887;SDS011;68276;49.326;8.690;2023-12-04T02:00:21;10.93;;;3.83;;
78887;SDS011;68276;49.326;8.690;2023-12-04T02:02:46;11.33;;;4.17;;
78887;SDS011;68276;49.326;8.690;2023-12-04T02:05:11;10.77;;;3.27;;
78887;SDS011;68276;49.326;8.690;2023-12-04T02:07:37;12.30;;;4.60;;
78887;SDS011;68276;49.326;8.690;2023-12-04T02:10:05;12.32;;;4.65;;
78887;SDS011;68276;49.326;8.690;2023-12-04T02:12:31;11.90;;;4.30;;
78887;SDS011;68276;49.326;8.690;2023-12-04T02:14:57;11.15;;;4.53;;
78887;SDS011;68276;49.326;8.690;2023-12-04T02:17:22;11.70;;;3.88;;
78887;SDS011;68276;49.326;8.690;2023-12-04T02:19:48;13.27;;;4.68;;
78887;SDS011;68276;49.326;8.690;2023-12-04T02:22:13;12.97;;;4.77;;
78887;SDS011;68276;49.326;8.690;2023-12-04T02:24:38;12.17;;;3.80;;
78887;SDS011;68276;49.326;8.690;2023-12-04T02:27:12;10.50;;;3.97;;
78887;SDS011;68276;49.326;8.690;2023-12-04T02:29:41;11.95;;;4.10;;
78887;SDS011;68276;49.326;8.690;2023-12-04T02:32:11;16.60;;;6.10;;
78887;SDS011;68276;49.326;8.690;2023-12-04T02:34:40;13.07;;;4.90;;
78887;SDS011;68276;49.326;8.690;2023-12-04T02:37:05;9.73;;;3.90;;
78887;SDS011;68276;49.326;8.690;2023-12-04T02:39:32;10.45;;;3.65;;
78887;SDS011;68276;49.326;8.690;2023-12-04T02:41:57;12.17;;;4.63;;
78887;SDS011;68276;49.326;8.690;2023-12-04T02:44:22;10.30;;;3.37;;
78887;SDS011;68276;49.326;8.690;2023-12-04T02:46:47;9.30;;;3.30;;
78887;SDS011;68276;49.326;8.690;2023-12-04T02:49:13;16.97;;;4.97;;
78887;SDS011;68276;49.326;8.690;2023-12-04T02:51:40;12.53;;;5.40;;
78887;SDS011;68276;49.326;8.690;2023-12-04T02:54:05;12.02;;;4.50;;
78887;SDS011;68276;49.326;8.690;2023-12-04T02:56:30;10.17;;;3.70;;
78887;SDS011;68276;49.326;8.690;2023-12-04T02:58:56;9.33;;;3.47;;
78887;SDS011;68276;49.326;8.690;2023-12-04T03:01:21;13.63;;;5.37;;
78887;SDS011;68276;49.326;8.690;2023-12-04T03:03:46;9.90;;;3.60;;
78887;SDS011;68276;49.326;8.690;2023-12-04T03:06:11;14.40;;;4.50;;
78887;SDS011;68276;49.326;8.690;2023-12-04T03:08:37;12.93;;;5.10;;
78887;SDS011;68276;49.326;8.690;2023-12-04T03:11:02;13.50;;;3.67;;
78887;SDS011;68276;49.326;8.690;2023-12-04T03:13:28;10.65;;;3.88;;
78887;SDS011;68276;49.326;8.690;2023-12-04T03:15:54;14.57;;;4.38;;
78887;SDS011;68276;49.326;8.690;2023-12-04T03:18:19;10.90;;;3.47;;
78887;SDS011;68276;49.326;8.690;2023-12-04T03:20:44;11.27;;;4.03;;
78887;SDS011;68276;49.326;8.690;2023-12-04T03:23:09;14.53;;;4.37;;
78887;SDS011;68276;49.326;8.690;2023-12-04T03:25:35;15.50;;;5.67;;
78887;SDS011;68276;49.326;8.690;2023-12-04T03:28:00;10.40;;;3.70;;
78887;SDS011;68276;49.326;8.690;2023-12-04T03:30:25;11.00;;;4.67;;
78887;SDS011;68276;49.326;8.690;2023-12-04T03:32:50;15.40;;;5.57;;
78887;SDS011;68276;49.326;8.690;2023-12-04T03:35:16;14.90;;;4.93;;
78887;SDS011;68276;49.326;8.690;2023-12-04T03:37:41;10.67;;;3.83;;
78887;SDS011;68276;49.326;8.690;2023-12-04T03:40:06;9.37;;;3.53;;
78887;SDS011;68276;49.326;8.690;2023-12-04T03:42:32;14.75;;;5.00;;
78887;SDS011;68276;49.326;8.690;2023-12-04T03:44:57;13.13;;;4.73;;
78887;SDS011;68276;49.326;8.690;2023-12-04T03:47:22;13.43;;;4.83;;
78887;SDS011;68276;49.326;8.690;2023-12-04T03:49:48;11.07;;;4.13;;
78887;SDS011;68276;49.326;8.690;2023-12-04T03:52:13;13.90;;;5.13;;
78887;SDS011;68276;49.326;8.690;2023-12-04T03:54:39;12.47;;;4.47;;
78887;SDS011;68276;49.326;8.690;2023-12-04T03:57:04;13.70;;;4.60;;
78887;SDS011;68276;49.326;8.690;2023-12-04T03:59:29;11.60;;;4.03;;
78887;SDS011;68276;49.326;8.690;2023-12-04T04:01:54;11.47;;;4.23;;
78887;SDS011;68276;49.326;8.690;2023-12-04T04:04:20;11.60;;;3.90;;
78887;SDS011;68276;49.326;8.690;2023-12-04T04:06:45;13.10;;;4.03;;
78887;SDS011;68276;49.326;8.690;2023-12-04T04:09:10;12.00;;;4.57;;
78887;SDS011;68276;49.326;8.690;2023-12-04T04:11:35;14.57;;;4.93;;
78887;SDS011;68276;49.326;8.690;2023-12-04T04:14:00;11.10;;;3.43;;
78887;SDS011;68276;49.326;8.690;2023-12-04T04:16:26;10.07;;;3.80;;
78887;SDS011;68276;49.326;8.690;2023-12-04T04:18:51;12.17;;;4.53;;
78887;SDS011;68276;49.326;8.690;2023-12-04T04:21:16;11.77;;;3.90;;
78887;SDS011;68276;49.326;8.690;2023-12-04T04:23:41;11.87;;;4.00;;
78887;SDS011;68276;49.326;8.690;2023-12-04T04:26:07;12.53;;;4.43;;
78887;SDS011;68276;49.326;8.690;2023-12-04T04:28:32;8.07;;;2.70;;
78887;SDS011;68276;49.326;8.690;2023-12-04T04:30:58;13.47;;;4.33;;
78887;SDS011;68276;49.326;8.690;2023-12-04T04:33:23;10.93;;;3.70;;
78887;SDS011;68276;49.326;8.690;2023-12-04T04:35:48;10.57;;;4.03;;
78887;SDS011;68276;49.326;8.690;2023-12-04T04:38:14;11.70;;;3.57;;
78887;SDS011;68276;49.326;8.690;2023-12-04T04:40:39;10.57;;;3.80;;
78887;SDS011;68276;49.326;8.690;2023-12-04T04:43:07;9.00;;;3.38;;
78887;SDS011;68276;49.326;8.690;2023-12-04T04:45:32;10.60;;;3.85;;
78887;SDS011;68276;49.326;8.690;2023-12-04T04:47:58;9.73;;;3.63;;
78887;SDS011;68276;49.326;8.690;2023-12-04T04:50:23;11.57;;;4.10;;
78887;SDS011;68276;49.326;8.690;2023-12-04T04:52:48;12.37;;;3.87;;
78887;SDS011;68276;49.326;8.690;2023-12-04T04:55:13;11.03;;;4.13;;
78887;SDS011;68276;49.326;8.690;2023-12-04T04:57:39;10.80;;;3.97;;
78887;SDS011;68276;49.326;8.690;2023-12-04T05:00:04;11.47;;;3.87;;
78887;SDS011;68276;49.326;8.690;2023-12-04T05:02:31;11.07;;;4.10;;
78887;SDS011;68276;49.326;8.690;2023-12-04T05:04:56;12.20;;;4.10;;
78887;SDS011;68276;49.326;8.690;2023-12-04T05:07:21;11.87;;;3.30;;
78887;SDS011;68276;49.326;8.690;2023-12-04T05:09:46;11.27;;;3.20;;
78887;SDS011;68276;49.326;8.690;2023-12-04T05:12:12;9.80;;;3.67;;
78887;SDS011;68276;49.326;8.690;2023-12-04T05:14:37;9.13;;;2.87;;
78887;SDS011;68276;49.326;8.690;2023-12-04T05:17:02;9.90;;;2.97;;
78887;SDS011;68276;49.326;8.690;2023-12-04T05:19:27;7.63;;;2.47;;
78887;SDS011;68276;49.326;8.690;2023-12-04T05:21:53;8.83;;;2.80;;
78887;SDS011;68276;49.326;8.690;2023-12-04T05:24:18;9.20;;;3.10;;
78887;SDS011;68276;49.326;8.690;2023-12-04T05:26:43;12.47;;;4.20;;
78887;SDS011;68276;49.326;8.690;2023-12-04T05:29:08;9.20;;;3.03;;
78887;SDS011;68276;49.326;8.690;2023-12-04T05:31:34;10.63;;;3.63;;
78887;SDS011;68276;49.326;8.690;2023-12-04T05:33:59;12.33;;;3.60;;
78887;SDS011;68276;49.326;8.690;2023-12-04T05:36:24;8.30;;;3.10;;
78887;SDS011;68276;49.326;8.690;2023-12-04T05:38:49;9.20;;;2.53;;
78887;SDS011;68276;49.326;8.690;2023-12-04T05:41:15;13.07;;;3.83;;
78887;SDS011;68276;49.326;8.690;2023-12-04T05:43:40;10.83;;;4.10;;
78887;SDS011;68276;49.326;8.690;2023-12-04T05:46:05;10.50;;;3.53;;
78887;SDS011;68276;49.326;8.690;2023-12-04T05:48:30;9.10;;;2.80;;
78887;SDS011;68276;49.326;8.690;2023-12-04T05:50:56;10.43;;;3.17;;
78887;SDS011;68276;49.326;8.690;2023-12-04T05:53:21;10.33;;;3.13;;
78887;SDS011;68276;49.326;8.690;2023-12-04T05:55:46;7.90;;;2.57;;
78887;SDS011;68276;49.326;8.690;2023-12-04T05:58:11;7.43;;;2.57;;
78887;SDS011;68276;49.326;8.690;2023-12-04T06:00:37;9.67;;;3.20;;
78887;SDS011;68276;49.326;8.690;2023-12-04T06:03:02;11.07;;;3.57;;
78887;SDS011;68276;49.326;8.690;2023-12-04T06:05:27;9.93;;;3.20;;
78887;SDS011;68276;49.326;8.690;2023-12-04T06:07:53;8.73;;;2.55;;
78887;SDS011;68276;49.326;8.690;2023-12-04T06:10:18;8.97;;;3.27;;
78887;SDS011;68276;49.326;8.690;2023-12-04T06:12:43;10.67;;;3.60;;
78887;SDS011;68276;49.326;8.690;2023-12-04T06:15:09;9.97;;;3.60;;
78887;SDS011;68276;49.326;8.690;2023-12-04T06:17:34;12.27;;;3.90;;
78887;SDS011;68276;49.326;8.690;2023-12-04T06:19:59;9.37;;;3.03;;
78887;SDS011;68276;49.326;8.690;2023-12-04T06:22:25;9.90;;;3.20;;
78887;SDS011;68276;49.326;8.690;2023-12-04T06:24:51;8.30;;;2.85;;
78887;SDS011;68276;49.326;8.690;2023-12-04T06:27:18;11.23;;;3.17;;
78887;SDS011;68276;49.326;8.690;2023-12-04T06:29:45;9.38;;;3.08;;
78887;SDS011;68276;49.326;8.690;2023-12-04T06:32:11;9.77;;;3.30;;
78887;SDS011;68276;49.326;8.690;2023-12-04T06:34:36;12.30;;;3.47;;
78887;SDS011;68276;49.326;8.690;2023-12-04T06:37:02;12.37;;;3.73;;
78887;SDS011;68276;49.326;8.690;2023-12-04T06:39:28;12.68;;;3.42;;
78887;SDS011;68276;49.326;8.690;2023-12-04T06:41:56;7.00;;;2.78;;
78887;SDS011;68276;49.326;8.690;2023-12-04T06:44:21;9.30;;;3.88;;
78887;SDS011;68276;49.326;8.690;2023-12-04T06:46:47;10.00;;;3.45;;
78887;SDS011;68276;49.326;8.690;2023-12-04T06:49:15;10.25;;;3.25;;
78887;SDS011;68276;49.326;8.690;2023-12-04T06:51:42;8.68;;;2.95;;
78887;SDS011;68276;49.326;8.690;2023-12-04T06:54:07;9.00;;;3.33;;
78887;SDS011;68276;49.326;8.690;2023-12-04T06:56:32;9.10;;;3.23;;
78887;SDS011;68276;49.326;8.690;2023-12-04T06:58:58;10.55;;;3.50;;
78887;SDS011;68276;49.326;8.690;2023-12-04T07:01:23;10.33;;;3.23;;
78887;SDS011;68276;49.326;8.690;2023-12-04T07:03:48;7.20;;;2.63;;
78887;SDS011;68276;49.326;8.690;2023-12-04T07:06:14;8.10;;;2.50;;
78887;SDS011;68276;49.326;8.690;2023-12-04T07:08:39;7.85;;;2.75;;
78887;SDS011;68276;49.326;8.690;2023-12-04T07:11:05;7.63;;;2.67;;
78887;SDS011;68276;49.326;8.690;2023-12-04T07:13:31;8.57;;;2.53;;
78887;SDS011;68276;49.326;8.690;2023-12-04T07:15:57;8.53;;;2.90;;
78887;SDS011;68276;49.326;8.690;2023-12-04T07:18:24;11.10;;;3.33;;
78887;SDS011;68276;49.326;8.690;2023-12-04T07:20:49;10.77;;;4.10;;
78887;SDS011;68276;49.326;8.690;2023-12-04T07:23:14;7.67;;;2.70;;
78887;SDS011;68276;49.326;8.690;2023-12-04T07:25:40;9.93;;;3.38;;
78887;SDS011;68276;49.326;8.690;2023-12-04T07:28:05;9.60;;;3.37;;
78887;SDS011;68276;49.326;8.690;2023-12-04T07:30:30;8.50;;;2.70;;
78887;SDS011;68276;49.326;8.690;2023-12-04T07:32:56;8.20;;;2.97;;
78887;SDS011;68276;49.326;8.690;2023-12-04T07:35:21;7.07;;;2.63;;
78887;SDS011;68276;49.326;8.690;2023-12-04T07:37:46;11.27;;;3.73;;
78887;SDS011;68276;49.326;8.690;2023-12-04T07:40:12;6.50;;;2.73;;
78887;SDS011;68276;49.326;8.690;2023-12-04T07:42:37;10.23;;;3.22;;
78887;SDS011;68276;49.326;8.690;2023-12-04T07:45:05;10.48;;;3.03;;
78887;SDS011;68276;49.326;8.690;2023-12-04T07:47:30;8.02;;;3.05;;
78887;SDS011;68276;49.326;8.690;2023-12-04T07:49:55;9.23;;;2.43;;
78887;SDS011;68276;49.326;8.690;2023-12-04T07:52:21;9.68;;;3.40;;
78887;SDS011;68276;49.326;8.690;2023-12-04T07:54:46;11.37;;;3.20;;
78887;SDS011;68276;49.326;8.690;2023-12-04T07:57:12;6.17;;;1.80;;
78887;SDS011;68276;49.326;8.690;2023-12-04T07:59:37;8.30;;;2.97;;
78887;SDS011;68276;49.326;8.690;2023-12-04T08:02:02;6.73;;;2.40;;
78887;SDS011;68276;49.326;8.690;2023-12-04T08:04:27;10.27;;;3.37;;
78887;SDS011;68276;49.326;8.690;2023-12-04T08:06:53;12.07;;;2.77;;
78887;SDS011;68276;49.326;8.690;2023-12-04T08:09:18;9.13;;;3.03;;
78887;SDS011;68276;49.326;8.690;2023-12-04T08:11:43;6.20;;;2.20;;
78887;SDS011;68276;49.326;8.690;2023-12-04T08:14:08;5.50;;;1.67;;
78887;SDS011;68276;49.326;8.690;2023-12-04T08:16:34;6.37;;;2.10;;
78887;SDS011;68276;49.326;8.690;2023-12-04T08:18:59;7.17;;;2.20;;
78887;SDS011;68276;49.326;8.690;2023-12-04T08:21:25;9.95;;;2.90;;
78887;SDS011;68276;49.326;8.690;2023-12-04T08:23:51;7.80;;;2.50;;
78887;SDS011;68276;49.326;8.690;2023-12-04T08:26:23;8.23;;;2.40;;
78887;SDS011;68276;49.326;8.690;2023-12-04T08:28:49;6.47;;;2.15;;
78887;SDS011;68276;49.326;8.690;2023-12-04T08:31:14;8.57;;;3.00;;
78887;SDS011;68276;49.326;8.690;2023-12-04T08:33:40;7.53;;;2.60;;
78887;SDS011;68276;49.326;8.690;2023-12-04T08:36:05;10.02;;;3.17;;
78887;SDS011;68276;49.326;8.690;2023-12-04T08:38:31;8.13;;;2.40;;
78887;SDS011;68276;49.326;8.690;2023-12-04T08:40:56;9.77;;;2.60;;
78887;SDS011;68276;49.326;8.690;2023-12-04T08:43:21;8.83;;;2.87;;
78887;SDS011;68276;49.326;8.690;2023-12-04T08:45:46;7.07;;;2.47;;
78887;SDS011;68276;49.326;8.690;2023-12-04T08:48:12;8.80;;;3.07;;
78887;SDS011;68276;49.326;8.690;2023-12-04T08:50:37;11.33;;;3.40;;
78887;SDS011;68276;49.326;8.690;2023-12-04T08:53:05;10.25;;;3.80;;
78887;SDS011;68276;49.326;8.690;2023-12-04T08:55:30;9.13;;;3.00;;
78887;SDS011;68276;49.326;8.690;2023-12-04T08:57:56;9.40;;;3.13;;
78887;SDS011;68276;49.326;8.690;2023-12-04T09:00:21;12.47;;;3.30;;
78887;SDS011;68276;49.326;8.690;2023-12-04T09:02:47;10.27;;;3.30;;
78887;SDS011;68276;49.326;8.690;2023-12-04T09:05:12;9.20;;;3.53;;
78887;SDS011;68276;49.326;8.690;2023-12-04T09:07:37;8.60;;;3.33;;
78887;SDS011;68276;49.326;8.690;2023-12-04T09:10:03;9.03;;;2.70;;
78887;SDS011;68276;49.326;8.690;2023-12-04T09:12:28;10.63;;;4.00;;
78887;SDS011;68276;49.326;8.690;2023-12-04T09:14:53;7.83;;;2.97;;
78887;SDS011;68276;49.326;8.690;2023-12-04T09:17:18;9.77;;;3.20;;
78887;SDS011;68276;49.326;8.690;2023-12-04T09:19:45;9.07;;;2.90;;
78887;SDS011;68276;49.326;8.690;2023-12-04T09:22:10;8.67;;;3.00;;
78887;SDS011;68276;49.326;8.690;2023-12-04T09:24:36;7.10;;;2.27;;
78887;SDS011;68276;49.326;8.690;2023-12-04T09:27:01;8.80;;;3.27;;
78887;SDS011;68276;49.326;8.690;2023-12-04T09:29:26;9.53;;;3.43;;
78887;SDS011;68276;49.326;8.690;2023-12-04T09:31:51;9.17;;;2.57;;
78887;SDS011;68276;49.326;8.690;2023-12-04T09:34:17;9.13;;;3.00;;
78887;SDS011;68276;49.326;8.690;2023-12-04T09:36:43;8.30;;;2.80;;
78887;SDS011;68276;49.326;8.690;2023-12-04T09:39:08;10.93;;;3.80;;
78887;SDS011;68276;49.326;8.690;2023-12-04T09:41:34;9.15;;;3.05;;
78887;SDS011;68276;49.326;8.690;2023-12-04T09:43:59;8.67;;;2.70;;
78887;SDS011;68276;49.326;8.690;2023-12-04T09:46:26;7.47;;;2.67;;
78887;SDS011;68276;49.326;8.690;2023-12-04T09:48:51;9.77;;;3.00;;
78887;SDS011;68276;49.326;8.690;2023-12-04T09:51:17;8.05;;;2.80;;
78887;SDS011;68276;49.326;8.690;2023-12-04T09:53:43;8.80;;;2.83;;
78887;SDS011;68276;49.326;8.690;2023-12-04T09:56:11;8.23;;;2.60;;
78887;SDS011;68276;49.326;8.690;2023-12-04T09:58:39;8.00;;;2.88;;
78887;SDS011;68276;49.326;8.690;2023-12-04T10:01:05;8.32;;;3.30;;
78887;SDS011;68276;49.326;8.690;2023-12-04T10:03:31;12.52;;;3.50;;
78887;SDS011;68276;49.326;8.690;2023-12-04T10:05:57;8.75;;;2.63;;
78887;SDS011;68276;49.326;8.690;2023-12-04T10:08:23;11.53;;;5.00;;
78887;SDS011;68276;49.326;8.690;2023-12-04T10:10:48;7.83;;;2.90;;
78887;SDS011;68276;49.326;8.690;2023-12-04T10:13:13;11.67;;;3.20;;
78887;SDS011;68276;49.326;8.690;2023-12-04T10:15:51;9.93;;;3.23;;
78887;SDS011;68276;49.326;8.690;2023-12-04T10:18:26;9.00;;;3.17;;
78887;SDS011;68276;49.326;8.690;2023-12-04T10:20:55;8.80;;;2.80;;
78887;SDS011;68276;49.326;8.690;2023-12-04T10:23:20;10.35;;;3.33;;
78887;SDS011;68276;49.326;8.690;2023-12-04T10:25:45;8.40;;;3.07;;
78887;SDS011;68276;49.326;8.690;2023-12-04T10:28:11;10.10;;;3.30;;
78887;SDS011;68276;49.326;8.690;2023-12-04T10:30:36;8.60;;;3.00;;
78887;SDS011;68276;49.326;8.690;2023-12-04T10:33:03;10.47;;;3.03;;
78887;SDS011;68276;49.326;8.690;2023-12-04T10:35:30;8.65;;;3.00;;
78887;SDS011;68276;49.326;8.690;2023-12-04T10:38:01;9.88;;;3.72;;
78887;SDS011;68276;49.326;8.690;2023-12-04T10:40:28;8.18;;;3.05;;
78887;SDS011;68276;49.326;8.690;2023-12-04T10:45:38;8.45;;;3.00;;
78887;SDS011;68276;49.326;8.690;2023-12-04T10:48:04;8.73;;;2.90;;
78887;SDS011;68276;49.326;8.690;2023-12-04T10:50:33;9.57;;;2.80;;
78887;SDS011;68276;49.326;8.690;2023-12-04T10:53:01;8.18;;;2.65;;
78887;SDS011;68276;49.326;8.690;2023-12-04T10:55:26;8.95;;;3.05;;
78887;SDS011;68276;49.326;8.690;2023-12-04T10:57:52;9.27;;;3.03;;
78887;SDS011;68276;49.326;8.690;2023-12-04T11:00:19;10.00;;;3.08;;
78887;SDS011;68276;49.326;8.690;2023-12-04T11:02:46;8.70;;;3.05;;
78887;SDS011;68276;49.326;8.690;2023-12-04T11:05:14;9.25;;;3.42;;
78887;SDS011;68276;49.326;8.690;2023-12-04T11:07:50;11.13;;;3.95;;
78887;SDS011;68276;49.326;8.690;2023-12-04T11:10:17;10.30;;;3.30;;
78887;SDS011;68276;49.326;8.690;2023-12-04T11:12:46;10.52;;;4.07;;
78887;SDS011;68276;49.326;8.690;2023-12-04T11:15:16;11.85;;;3.78;;
78887;SDS011;68276;49.326;8.690;2023-12-04T11:17:42;14.02;;;5.43;;
78887;SDS011;68276;49.326;8.690;2023-12-04T11:20:11;10.15;;;3.28;;
78887;SDS011;68276;49.326;8.690;2023-12-04T11:22:38;12.38;;;3.72;;
78887;SDS011;68276;49.326;8.690;2023-12-04T11:25:07;8.85;;;3.20;;
78887;SDS011;68276;49.326;8.690;2023-12-04T11:27:33;22.42;;;3.92;;
78887;SDS011;68276;49.326;8.690;2023-12-04T11:29:59;10.48;;;3.33;;
78887;SDS011;68276;49.326;8.690;2023-12-04T11:32:24;9.82;;;4.07;;
78887;SDS011;68276;49.326;8.690;2023-12-04T11:34:56;9.00;;;3.30;;
78887;SDS011;68276;49.326;8.690;2023-12-04T11:37:23;13.07;;;4.53;;
78887;SDS011;68276;49.326;8.690;2023-12-04T11:39:51;13.03;;;4.53;;
78887;SDS011;68276;49.326;8.690;2023-12-04T11:42:22;10.73;;;3.65;;
78887;SDS011;68276;49.326;8.690;2023-12-04T11:44:48;10.68;;;4.32;;
78887;SDS011;68276;49.326;8.690;2023-12-04T11:47:15;10.38;;;4.07;;
78887;SDS011;68276;49.326;8.690;2023-12-04T11:49:45;9.77;;;3.75;;
78887;SDS011;68276;49.326;8.690;2023-12-04T11:52:10;10.87;;;4.17;;
78887;SDS011;68276;49.326;8.690;2023-12-04T11:57:20;12.73;;;4.55;;
78887;SDS011;68276;49.326;8.690;2023-12-04T11:59:47;14.00;;;5.20;;
78887;SDS011;68276;49.326;8.690;2023-12-04T12:02:13;13.88;;;4.97;;
78887;SDS011;68276;49.326;8.690;2023-12-04T12:04:38;9.93;;;3.90;;
78887;SDS011;68276;49.326;8.690;2023-12-04T12:07:07;13.57;;;4.70;;
78887;SDS011;68276;49.326;8.690;2023-12-04T12:09:32;12.52;;;4.47;;
78887;SDS011;68276;49.326;8.690;2023-12-04T12:12:01;12.50;;;4.55;;
78887;SDS011;68276;49.326;8.690;2023-12-04T12:14:27;8.38;;;2.92;;
78887;SDS011;68276;49.326;8.690;2023-12-04T12:16:54;15.38;;;5.25;;
78887;SDS011;68276;49.326;8.690;2023-12-04T12:21:46;11.80;;;4.50;;
78887;SDS011;68276;49.326;8.690;2023-12-04T12:24:14;18.65;;;6.55;;
78887;SDS011;68276;49.326;8.690;2023-12-04T12:26:39;14.00;;;5.03;;
78887;SDS011;68276;49.326;8.690;2023-12-04T12:29:04;13.50;;;5.27;;
78887;SDS011;68276;49.326;8.690;2023-12-04T12:31:30;15.27;;;5.10;;
78887;SDS011;68276;49.326;8.690;2023-12-04T12:33:55;13.00;;;5.17;;
78887;SDS011;68276;49.326;8.690;2023-12-04T12:36:20;17.63;;;5.45;;
78887;SDS011;68276;49.326;8.690;2023-12-04T12:38:46;13.73;;;5.97;;
78887;SDS011;68276;49.326;8.690;2023-12-04T12:41:16;14.32;;;5.82;;
78887;SDS011;68276;49.326;8.690;2023-12-04T12:43:42;15.15;;;5.25;;
78887;SDS011;68276;49.326;8.690;2023-12-04T12:46:07;12.90;;;4.22;;
78887;SDS011;68276;49.326;8.690;2023-12-04T12:48:34;15.02;;;5.68;;
78887;SDS011;68276;49.326;8.690;2023-12-04T12:50:59;11.65;;;4.63;;
78887;SDS011;68276;49.326;8.690;2023-12-04T12:53:27;13.65;;;5.97;;
78887;SDS011;68276;49.326;8.690;2023-12-04T12:55:52;13.97;;;5.13;;
78887;SDS011;68276;49.326;8.690;2023-12-04T12:58:17;16.60;;;5.80;;
78887;SDS011;68276;49.326;8.690;2023-12-04T13:00:46;14.35;;;5.15;;
78887;SDS011;68276;49.326;8.690;2023-12-04T13:03:17;8.43;;;3.25;;
78887;SDS011;68276;49.326;8.690;2023-12-04T13:05:43;12.65;;;5.28;;
78887;SDS011;68276;49.326;8.690;2023-12-04T13:08:08;10.85;;;4.20;;
78887;SDS011;68276;49.326;8.690;2023-12-04T13:10:34;14.53;;;4.93;;
78887;SDS011;68276;49.326;8.690;2023-12-04T13:12:59;14.53;;;5.03;;
78887;SDS011;68276;49.326;8.690;2023-12-04T13:15:25;11.10;;;4.78;;
78887;SDS011;68276;49.326;8.690;2023-12-04T13:17:50;13.52;;;6.10;;
78887;SDS011;68276;49.326;8.690;2023-12-04T13:20:16;13.50;;;4.43;;
78887;SDS011;68276;49.326;8.690;2023-12-04T13:22:42;10.95;;;4.40;;
78887;SDS011;68276;49.326;8.690;2023-12-04T13:25:07;11.40;;;4.07;;
78887;SDS011;68276;49.326;8.690;2023-12-04T13:27:35;13.25;;;5.40;;
78887;SDS011;68276;49.326;8.690;2023-12-04T13:30:01;15.85;;;5.72;;
78887;SDS011;68276;49.326;8.690;2023-12-04T13:32:26;19.52;;;4.82;;
78887;SDS011;68276;49.326;8.690;2023-12-04T13:34:52;14.13;;;5.28;;
78887;SDS011;68276;49.326;8.690;2023-12-04T13:37:20;11.30;;;3.63;;
78887;SDS011;68276;49.326;8.690;2023-12-04T13:39:45;11.93;;;4.10;;
78887;SDS011;68276;49.326;8.690;2023-12-04T13:42:16;13.48;;;5.22;;
78887;SDS011;68276;49.326;8.690;2023-12-04T13:45:00;10.65;;;4.25;;
78887;SDS011;68276;49.326;8.690;2023-12-04T13:47:26;14.85;;;5.68;;
78887;SDS011;68276;49.326;8.690;2023-12-04T13:49:51;17.95;;;6.57;;
78887;SDS011;68276;49.326;8.690;2023-12-04T13:52:17;9.90;;;3.87;;
78887;SDS011;68276;49.326;8.690;2023-12-04T13:54:47;11.75;;;4.20;;
78887;SDS011;68276;49.326;8.690;2023-12-04T13:57:14;16.35;;;6.60;;
78887;SDS011;68276;49.326;8.690;2023-12-04T13:59:46;13.43;;;4.70;;
78887;SDS011;68276;49.326;8.690;2023-12-04T14:02:11;9.83;;;3.37;;
78887;SDS011;68276;49.326;8.690;2023-12-04T14:04:37;13.88;;;4.45;;
78887;SDS011;68276;49.326;8.690;2023-12-04T14:07:04;9.90;;;3.88;;
78887;SDS011;68276;49.326;8.690;2023-12-04T14:09:29;10.53;;;4.33;;
78887;SDS011;68276;49.326;8.690;2023-12-04T14:11:54;12.77;;;4.03;;
78887;SDS011;68276;49.326;8.690;2023-12-04T14:14:19;14.77;;;3.80;;
78887;SDS011;68276;49.326;8.690;2023-12-04T14:16:45;12.77;;;4.30;;
78887;SDS011;68276;49.326;8.690;2023-12-04T14:19:12;15.38;;;4.80;;
78887;SDS011;68276;49.326;8.690;2023-12-04T14:21:38;11.82;;;4.22;;
78887;SDS011;68276;49.326;8.690;2023-12-04T14:24:04;13.50;;;4.88;;
78887;SDS011;68276;49.326;8.690;2023-12-04T14:26:30;13.65;;;5.70;;
78887;SDS011;68276;49.326;8.690;2023-12-04T14:28:56;16.10;;;5.53;;
78887;SDS011;68276;49.326;8.690;2023-12-04T14:31:23;16.02;;;5.05;;
78887;SDS011;68276;49.326;8.690;2023-12-04T14:33:48;12.63;;;4.82;;
78887;SDS011;68276;49.326;8.690;2023-12-04T14:36:14;14.75;;;5.43;;
78887;SDS011;68276;49.326;8.690;2023-12-04T14:38:40;13.55;;;5.22;;